Time;durP1;ratioP1;P1;durP2;ratioP2;P2;SDS_P1;SDS_P2;PMS_P1;PMS_P2;Temp;Humidity;BMP_temperature;BMP_pressure;BME280_temperature;BME280_humidity;BME280_pressure;Samples;Min_cycle;Max_cycle;Signal;HPM_P1;HPM_P2
2022/06/08 00:01:59;;;;;;;6.05;2.72;;;;;;;;;;5047232;28;20056;-67
2022/06/08 00:04:26;;;;;;;6.63;3.20;;;;;;;;;;5041493;28;20109;-65
2022/06/08 00:06:53;;;;;;;7.10;2.75;;;;;;;;;;5047719;28;20064;-65
2022/06/08 00:09:20;;;;;;;6.40;2.90;;;;;;;;;;5041734;28;20044;-69
2022/06/08 00:11:48;;;;;;;6.28;2.97;;;;;;;;;;5047660;28;20056;-65
2022/06/08 00:14:16;;;;;;;5.13;2.67;;;;;;;;;;5041583;28;20045;-66
2022/06/08 00:16:43;;;;;;;8.07;3.42;;;;;;;;;;5046324;28;20057;-67
2022/06/08 00:19:10;;;;;;;5.88;2.60;;;;;;;;;;5043699;28;20053;-67
2022/06/08 00:21:36;;;;;;;5.55;2.80;;;;;;;;;;5045851;28;20124;-67
2022/06/08 00:24:04;;;;;;;7.72;3.33;;;;;;;;;;5046973;28;20060;-66
2022/06/08 00:26:31;;;;;;;5.72;2.83;;;;;;;;;;5042851;28;20049;-65
2022/06/08 00:28:59;;;;;;;8.60;4.45;;;;;;;;;;5048104;28;20049;-65
2022/06/08 00:31:26;;;;;;;5.75;2.47;;;;;;;;;;5042180;28;20052;-66
2022/06/08 00:33:52;;;;;;;6.32;2.97;;;;;;;;;;5046750;28;20048;-65
2022/06/08 00:36:19;;;;;;;5.93;2.90;;;;;;;;;;5058369;28;20049;-66
2022/06/08 00:38:46;;;;;;;8.70;3.42;;;;;;;;;;5047701;28;20060;-65
2022/06/08 00:41:23;;;;;;;6.57;3.45;;;;;;;;;;5041900;28;20049;-68
2022/06/08 00:43:50;;;;;;;8.05;3.55;;;;;;;;;;5047909;28;20115;-69
2022/06/08 00:46:18;;;;;;;14.43;6.40;;;;;;;;;;5040073;28;20086;-68
2022/06/08 00:48:47;;;;;;;10.73;4.47;;;;;;;;;;5046354;28;20053;-71
2022/06/08 00:51:14;;;;;;;10.18;4.07;;;;;;;;;;5041058;28;20044;-67
2022/06/08 00:53:45;;;;;;;6.38;3.08;;;;;;;;;;5047283;28;20044;-69
2022/06/08 00:56:16;;;;;;;9.32;4.20;;;;;;;;;;5040605;28;20041;-65
2022/06/08 00:58:43;;;;;;;12.10;3.03;;;;;;;;;;5026719;28;20048;-68
2022/06/08 01:01:10;;;;;;;8.40;3.50;;;;;;;;;;5021175;28;20168;-68
2022/06/08 01:03:38;;;;;;;5.90;3.13;;;;;;;;;;5027207;28;20041;-66
2022/06/08 01:06:06;;;;;;;15.80;5.70;;;;;;;;;;5022531;28;20123;-63
2022/06/08 01:08:35;;;;;;;18.73;7.65;;;;;;;;;;5026513;28;20045;-70
2022/06/08 01:11:03;;;;;;;11.45;6.32;;;;;;;;;;5027319;28;20065;-70
2022/06/08 01:13:31;;;;;;;6.07;2.90;;;;;;;;;;5021942;28;20068;-70
2022/06/08 01:16:00;;;;;;;12.18;6.72;;;;;;;;;;5029503;28;20065;-70
2022/06/08 01:18:26;;;;;;;15.23;7.38;;;;;;;;;;5021837;28;20061;-71
2022/06/08 01:20:55;;;;;;;11.98;4.93;;;;;;;;;;5032042;28;20049;-70
2022/06/08 01:23:24;;;;;;;7.47;3.90;;;;;;;;;;5052207;28;20057;-69
2022/06/08 01:26:08;;;;;;;13.93;7.13;;;;;;;;;;5026854;28;20053;-70
2022/06/08 01:28:37;;;;;;;10.07;4.40;;;;;;;;;;5029299;28;20049;-64
2022/06/08 01:31:09;;;;;;;12.07;6.18;;;;;;;;;;5046771;28;20063;-66
2022/06/08 01:33:44;;;;;;;14.52;6.47;;;;;;;;;;5041209;28;20075;-66
2022/06/08 01:36:25;;;;;;;10.75;5.13;;;;;;;;;;5046597;28;20143;-64
2022/06/08 01:38:57;;;;;;;13.20;7.18;;;;;;;;;;5057706;28;20049;-66
2022/06/08 01:41:34;;;;;;;7.93;3.95;;;;;;;;;;5046819;28;20053;-67
2022/06/08 01:44:06;;;;;;;10.25;5.15;;;;;;;;;;5040390;28;20063;-66
2022/06/08 01:46:35;;;;;;;16.15;6.13;;;;;;;;;;5046629;28;20152;-63
2022/06/08 01:49:11;;;;;;;9.45;3.40;;;;;;;;;;5051663;28;20077;-64
2022/06/08 01:51:45;;;;;;;7.45;3.33;;;;;;;;;;5049368;28;20063;-70
2022/06/08 01:54:18;;;;;;;8.63;3.30;;;;;;;;;;5042506;28;20041;-65
2022/06/08 01:56:47;;;;;;;10.30;5.18;;;;;;;;;;5050100;28;20044;-69
2022/06/08 01:59:20;;;;;;;9.93;3.40;;;;;;;;;;5044551;28;20041;-66
2022/06/08 02:01:50;;;;;;;6.45;3.20;;;;;;;;;;5066240;28;20116;-66
2022/06/08 02:04:23;;;;;;;8.07;3.58;;;;;;;;;;5044375;28;20060;-66
2022/06/08 02:06:52;;;;;;;7.55;3.38;;;;;;;;;;5049836;28;20147;-67
2022/06/08 02:09:23;;;;;;;14.30;7.43;;;;;;;;;;5044330;28;20118;-63
2022/06/08 02:11:54;;;;;;;9.40;4.38;;;;;;;;;;5050124;28;20059;-68
2022/06/08 02:14:23;;;;;;;10.35;5.03;;;;;;;;;;5044573;28;20041;-65
2022/06/08 02:16:52;;;;;;;7.30;3.75;;;;;;;;;;5050154;28;20049;-65
2022/06/08 02:19:20;;;;;;;9.00;4.72;;;;;;;;;;5044568;28;20052;-68
2022/06/08 02:21:49;;;;;;;9.05;4.10;;;;;;;;;;5050560;28;20112;-70
2022/06/08 02:24:19;;;;;;;8.73;3.92;;;;;;;;;;5043575;28;20138;-72
2022/06/08 02:26:48;;;;;;;14.43;7.30;;;;;;;;;;5048897;28;20087;-71
2022/06/08 02:29:16;;;;;;;9.43;4.20;;;;;;;;;;5045565;28;20120;-71
2022/06/08 02:31:45;;;;;;;6.82;3.42;;;;;;;;;;5038581;28;20125;-68
2022/06/08 02:34:28;;;;;;;7.13;3.55;;;;;;;;;;5030370;28;20129;-71
2022/06/08 02:36:58;;;;;;;7.40;3.72;;;;;;;;;;5045063;28;20135;-66
2022/06/08 02:39:28;;;;;;;8.27;3.90;;;;;;;;;;5044243;28;20075;-67
2022/06/08 02:41:58;;;;;;;10.40;4.35;;;;;;;;;;5043240;28;20060;-71
2022/06/08 02:44:27;;;;;;;7.45;3.47;;;;;;;;;;5049627;28;20052;-72
2022/06/08 02:46:53;;;;;;;;;;;;;;;;;;5044209;28;20052;-72
2022/06/08 02:49:20;;;;;;;14.20;7.07;;;;;;;;;;5049230;28;19932;-71
2022/06/08 02:51:49;;;;;;;8.02;3.83;;;;;;;;;;5043578;28;20079;-71
2022/06/08 02:54:22;;;;;;;7.53;3.47;;;;;;;;;;5031662;28;20057;-72
2022/06/08 02:56:55;;;;;;;8.40;3.90;;;;;;;;;;5023731;28;20054;-72
2022/06/08 02:59:28;;;;;;;12.38;4.63;;;;;;;;;;5029559;28;20072;-72
2022/06/08 03:02:00;;;;;;;8.57;4.32;;;;;;;;;;5021547;28;20074;-66
2022/06/08 03:04:29;;;;;;;9.35;4.50;;;;;;;;;;5028902;28;20061;-72
2022/06/08 03:06:59;;;;;;;7.70;4.15;;;;;;;;;;5023294;28;20041;-71
2022/06/08 03:09:26;;;;;;;8.20;4.00;;;;;;;;;;5028806;28;20041;-66
2022/06/08 03:11:55;;;;;;;11.00;4.28;;;;;;;;;;5022383;28;20080;-68
2022/06/08 03:14:22;;;;;;;11.70;5.00;;;;;;;;;;5028627;28;20057;-71
2022/06/08 03:16:56;;;;;;;9.30;4.35;;;;;;;;;;5023760;28;20092;-67
2022/06/08 03:19:23;;;;;;;10.38;4.75;;;;;;;;;;5028918;28;20049;-65
2022/06/08 03:21:49;;;;;;;9.98;4.43;;;;;;;;;;5022700;28;20060;-66
2022/06/08 03:24:17;;;;;;;12.65;6.13;;;;;;;;;;5032938;28;20057;-67
2022/06/08 03:26:45;;;;;;;15.77;7.73;;;;;;;;;;5042831;28;20060;-68
2022/06/08 03:29:12;;;;;;;10.40;5.47;;;;;;;;;;5042060;28;20296;-65
2022/06/08 03:31:39;;;;;;;18.27;8.25;;;;;;;;;;5031212;28;20052;-68
2022/06/08 03:34:07;;;;;;;13.23;4.90;;;;;;;;;;5063145;28;20099;-69
2022/06/08 03:36:33;;;;;;;10.95;4.30;;;;;;;;;;5048278;28;20053;-63
2022/06/08 03:39:00;;;;;;;10.20;5.35;;;;;;;;;;5042026;28;20132;-66
2022/06/08 03:41:27;;;;;;;12.38;5.35;;;;;;;;;;5047810;28;20053;-68
2022/06/08 03:43:55;;;;;;;7.90;4.45;;;;;;;;;;5041954;28;20041;-66
2022/06/08 03:46:22;;;;;;;;;;;;;;;;;;5048827;28;20068;-66
2022/06/08 03:48:51;;;;;;;13.65;5.80;;;;;;;;;;5059520;28;19931;-65
2022/06/08 03:51:17;;;;;;;;;;;;;;;;;;5048912;28;20144;-69
2022/06/08 03:53:48;;;;;;;9.07;4.20;;;;;;;;;;5034025;28;19936;-66
2022/06/08 03:56:17;;;;;;;16.80;9.38;;;;;;;;;;5028556;28;20056;-68
2022/06/08 03:58:44;;;;;;;11.30;5.00;;;;;;;;;;5040038;28;20061;-68
2022/06/08 04:01:11;;;;;;;10.88;5.32;;;;;;;;;;5038320;28;20037;-65
2022/06/08 04:03:38;;;;;;;13.68;4.95;;;;;;;;;;5042131;28;20135;-65
2022/06/08 04:06:04;;;;;;;11.88;5.32;;;;;;;;;;5047488;28;20053;-68
2022/06/08 04:08:32;;;;;;;12.73;5.80;;;;;;;;;;5041692;28;20045;-65
2022/06/08 04:11:00;;;;;;;21.67;10.35;;;;;;;;;;5046820;28;20048;-66
2022/06/08 04:13:27;;;;;;;12.45;6.70;;;;;;;;;;5042398;28;20059;-64
2022/06/08 04:15:53;;;;;;;12.27;6.10;;;;;;;;;;5063759;28;20076;-63
2022/06/08 04:18:22;;;;;;;15.68;7.68;;;;;;;;;;5047478;28;20084;-68
2022/06/08 04:20:49;;;;;;;19.55;10.15;;;;;;;;;;5041500;28;20060;-68
2022/06/08 04:23:19;;;;;;;11.38;6.45;;;;;;;;;;5047948;28;20087;-64
2022/06/08 04:25:46;;;;;;;9.52;4.78;;;;;;;;;;5041999;28;20063;-67
2022/06/08 04:28:14;;;;;;;21.08;10.25;;;;;;;;;;5047154;28;20056;-66
2022/06/08 04:30:41;;;;;;;12.13;5.60;;;;;;;;;;5041673;28;20081;-68
2022/06/08 04:33:08;;;;;;;13.68;6.97;;;;;;;;;;5047004;28;20053;-65
2022/06/08 04:35:34;;;;;;;12.18;6.00;;;;;;;;;;5042096;28;20049;-65
2022/06/08 04:38:01;;;;;;;17.05;8.40;;;;;;;;;;5047525;28;20053;-66
2022/06/08 04:40:28;;;;;;;11.38;5.15;;;;;;;;;;5031769;28;20050;-64
2022/06/08 04:42:58;;;;;;;15.20;6.43;;;;;;;;;;5043217;28;20057;-64
2022/06/08 04:45:26;;;;;;;10.38;5.00;;;;;;;;;;5041581;28;20049;-66
2022/06/08 04:47:53;;;;;;;9.65;5.13;;;;;;;;;;5047157;28;20076;-68
2022/06/08 04:50:20;;;;;;;16.45;7.90;;;;;;;;;;5041828;28;20045;-66
2022/06/08 04:52:48;;;;;;;12.90;6.30;;;;;;;;;;5046449;28;20060;-63
2022/06/08 04:55:15;;;;;;;14.68;6.82;;;;;;;;;;5041994;28;20134;-64
2022/06/08 04:57:41;;;;;;;15.40;8.35;;;;;;;;;;5061603;28;20053;-67
2022/06/08 05:00:10;;;;;;;12.05;5.70;;;;;;;;;;5041593;28;20132;-67
2022/06/08 05:02:44;;;;;;;12.48;6.70;;;;;;;;;;5047533;28;20055;-64
2022/06/08 05:05:11;;;;;;;10.40;5.20;;;;;;;;;;5062578;28;20131;-65
2022/06/08 05:07:38;;;;;;;11.57;5.63;;;;;;;;;;5042847;28;20044;-69
2022/06/08 05:10:05;;;;;;;14.85;6.72;;;;;;;;;;5047581;28;20045;-63
2022/06/08 05:12:33;;;;;;;13.45;6.03;;;;;;;;;;5043273;28;20049;-68
2022/06/08 05:15:00;;;;;;;9.13;5.30;;;;;;;;;;5049139;28;20049;-67
2022/06/08 05:17:26;;;;;;;13.57;6.40;;;;;;;;;;5043733;28;20048;-66
2022/06/08 05:19:54;;;;;;;11.70;6.28;;;;;;;;;;5046623;28;20045;-65
2022/06/08 05:22:21;;;;;;;18.55;7.38;;;;;;;;;;5024911;28;20106;-67
2022/06/08 05:24:49;;;;;;;11.68;5.63;;;;;;;;;;5053314;28;20152;-67
2022/06/08 05:27:17;;;;;;;10.40;4.90;;;;;;;;;;5047992;28;20140;-68
2022/06/08 05:29:44;;;;;;;13.80;6.13;;;;;;;;;;5066588;28;20057;-64
2022/06/08 05:32:11;;;;;;;15.27;7.78;;;;;;;;;;5029687;28;20052;-65
2022/06/08 05:34:37;;;;;;;12.85;5.68;;;;;;;;;;5052357;28;20139;-65
2022/06/08 05:37:06;;;;;;;10.63;5.18;;;;;;;;;;5042495;28;20075;-65
2022/06/08 05:39:32;;;;;;;15.18;6.45;;;;;;;;;;5051214;28;20061;-67
2022/06/08 05:41:59;;;;;;;12.43;6.32;;;;;;;;;;5043438;28;20057;-68
2022/06/08 05:44:26;;;;;;;10.18;5.13;;;;;;;;;;5049780;28;20132;-65
2022/06/08 05:46:53;;;;;;;14.35;6.70;;;;;;;;;;5044414;28;20112;-65
2022/06/08 05:49:20;;;;;;;12.43;6.65;;;;;;;;;;5027942;28;20092;-66
2022/06/08 05:51:47;;;;;;;9.55;5.40;;;;;;;;;;5031565;28;20063;-65
2022/06/08 05:54:17;;;;;;;10.43;5.40;;;;;;;;;;5030754;28;20071;-67
2022/06/08 05:56:44;;;;;;;11.00;5.25;;;;;;;;;;5050315;28;20159;-66
2022/06/08 05:59:11;;;;;;;11.82;5.97;;;;;;;;;;5054346;28;20057;-68
2022/06/08 06:01:38;;;;;;;10.30;5.13;;;;;;;;;;5037651;28;20049;-68
2022/06/08 06:04:07;;;;;;;13.13;6.05;;;;;;;;;;5043966;28;20053;-67
2022/06/08 06:06:34;;;;;;;13.57;6.80;;;;;;;;;;5050200;28;20053;-65
2022/06/08 06:09:00;;;;;;;12.38;6.50;;;;;;;;;;5035899;28;20049;-65
2022/06/08 06:11:29;;;;;;;9.57;5.18;;;;;;;;;;5029977;28;20057;-67
2022/06/08 06:13:57;;;;;;;10.30;5.10;;;;;;;;;;5040711;28;20057;-69
2022/06/08 06:16:25;;;;;;;11.35;5.30;;;;;;;;;;5046533;28;20053;-64
2022/06/08 06:18:51;;;;;;;10.23;5.00;;;;;;;;;;5050218;28;20143;-67
2022/06/08 06:21:20;;;;;;;9.35;4.78;;;;;;;;;;5066309;28;20044;-64
2022/06/08 06:23:46;;;;;;;10.25;5.50;;;;;;;;;;5060650;28;20049;-66
2022/06/08 06:26:13;;;;;;;11.23;4.85;;;;;;;;;;5049695;28;20049;-65
2022/06/08 06:28:41;;;;;;;14.65;6.25;;;;;;;;;;5044769;28;20049;-64
2022/06/08 06:31:10;;;;;;;9.38;4.88;;;;;;;;;;5037464;28;20052;-64
2022/06/08 06:33:36;;;;;;;;;;;;;;;;;;5029198;28;20061;-66
2022/06/08 06:36:03;;;;;;;12.65;5.22;;;;;;;;;;5036905;28;19959;-64
2022/06/08 06:38:30;;;;;;;12.05;4.90;;;;;;;;;;5049060;28;20060;-66
2022/06/08 06:40:57;;;;;;;10.55;4.97;;;;;;;;;;5039841;28;20048;-65
2022/06/08 06:43:24;;;;;;;11.02;5.43;;;;;;;;;;5048972;28;20057;-65
2022/06/08 06:45:52;;;;;;;11.80;4.82;;;;;;;;;;5030781;28;20124;-67
2022/06/08 06:48:18;;;;;;;8.82;3.97;;;;;;;;;;5029522;28;20049;-65
2022/06/08 06:50:45;;;;;;;8.93;4.75;;;;;;;;;;5023595;28;20060;-65
2022/06/08 06:53:12;;;;;;;9.00;5.00;;;;;;;;;;5045948;28;20053;-68
2022/06/08 06:55:39;;;;;;;8.70;4.13;;;;;;;;;;5023731;28;20103;-63
2022/06/08 06:58:07;;;;;;;9.30;4.50;;;;;;;;;;5044077;28;20075;-64
2022/06/08 07:00:34;;;;;;;11.27;5.10;;;;;;;;;;5043416;28;20048;-65
2022/06/08 07:03:02;;;;;;;9.00;4.47;;;;;;;;;;5049193;28;20057;-67
2022/06/08 07:05:32;;;;;;;7.75;4.43;;;;;;;;;;5043070;28;20080;-64
2022/06/08 07:07:58;;;;;;;7.60;4.43;;;;;;;;;;5032578;28;20057;-64
2022/06/08 07:10:25;;;;;;;7.80;3.88;;;;;;;;;;5039803;28;20136;-65
2022/06/08 07:12:52;;;;;;;6.07;3.60;;;;;;;;;;5045927;28;20104;-65
2022/06/08 07:15:20;;;;;;;7.15;3.97;;;;;;;;;;5044586;28;20060;-65
2022/06/08 07:17:47;;;;;;;8.95;4.45;;;;;;;;;;5045041;28;20053;-64
2022/06/08 07:20:16;;;;;;;8.43;4.20;;;;;;;;;;5048424;28;20083;-65
2022/06/08 07:22:42;;;;;;;;;;;;;;;;;;5043402;28;20057;-64
2022/06/08 07:25:09;;;;;;;7.35;3.67;;;;;;;;;;5064598;28;19924;-67
2022/06/08 07:27:36;;;;;;;11.02;4.20;;;;;;;;;;5042960;28;20049;-66
2022/06/08 07:30:03;;;;;;;8.25;3.83;;;;;;;;;;5047715;28;20068;-65
2022/06/08 07:32:30;;;;;;;9.55;3.58;;;;;;;;;;5042494;28;20091;-66
2022/06/08 07:34:57;;;;;;;7.78;3.17;;;;;;;;;;5048115;28;20088;-66
2022/06/08 07:37:26;;;;;;;10.50;4.55;;;;;;;;;;5040155;28;20053;-65
2022/06/08 07:39:53;;;;;;;12.20;3.97;;;;;;;;;;5048652;28;20120;-65
2022/06/08 07:42:19;;;;;;;12.27;3.95;;;;;;;;;;5051086;28;20075;-65
2022/06/08 07:44:46;;;;;;;7.82;3.70;;;;;;;;;;5043927;28;20041;-69
2022/06/08 07:47:13;;;;;;;7.60;3.85;;;;;;;;;;5040909;28;20036;-68
2022/06/08 07:49:39;;;;;;;6.93;3.20;;;;;;;;;;5048499;28;20040;-64
2022/06/08 07:52:08;;;;;;;6.45;3.40;;;;;;;;;;5043622;28;20049;-65
2022/06/08 07:54:36;;;;;;;5.80;3.00;;;;;;;;;;5048206;28;20048;-66
2022/06/08 07:57:04;;;;;;;7.57;3.65;;;;;;;;;;5042507;28;20084;-63
2022/06/08 07:59:32;;;;;;;5.60;3.00;;;;;;;;;;5047935;28;20048;-65
2022/06/08 08:01:59;;;;;;;7.47;3.28;;;;;;;;;;5064461;28;20059;-65
2022/06/08 08:04:25;;;;;;;8.27;3.55;;;;;;;;;;5059190;28;20064;-66
2022/06/08 08:06:52;;;;;;;5.88;3.28;;;;;;;;;;5047696;28;20053;-67
2022/06/08 08:09:20;;;;;;;8.05;3.40;;;;;;;;;;5037879;28;20112;-64
2022/06/08 08:11:50;;;;;;;5.38;3.00;;;;;;;;;;5033170;28;20052;-65
2022/06/08 08:14:17;;;;;;;7.20;3.05;;;;;;;;;;5042842;28;20107;-63
2022/06/08 08:16:44;;;;;;;7.95;3.60;;;;;;;;;;5047467;28;20061;-66
2022/06/08 08:19:11;;;;;;;8.48;3.45;;;;;;;;;;5036936;28;20079;-66
2022/06/08 08:21:38;;;;;;;8.73;3.63;;;;;;;;;;5045150;28;20060;-65
2022/06/08 08:24:06;;;;;;;6.50;3.38;;;;;;;;;;5022253;28;20117;-66
2022/06/08 08:26:33;;;;;;;11.55;3.75;;;;;;;;;;5044389;28;20160;-64
2022/06/08 08:29:02;;;;;;;6.00;2.90;;;;;;;;;;5023187;28;20183;-64
2022/06/08 08:31:28;;;;;;;6.53;3.17;;;;;;;;;;5044680;28;20050;-65
2022/06/08 08:33:56;;;;;;;5.95;2.90;;;;;;;;;;5022475;28;20053;-64
2022/06/08 08:36:23;;;;;;;5.38;2.47;;;;;;;;;;5035240;28;20052;-65
2022/06/08 08:38:49;;;;;;;7.18;3.13;;;;;;;;;;5041041;28;20079;-65
2022/06/08 08:44:05;;;;;;;6.15;2.63;;;;;;;;;;5041828;28;20138;-63
2022/06/08 08:46:37;;;;;;;10.43;3.40;;;;;;;;;;5047192;28;20057;-67
2022/06/08 08:49:05;;;;;;;7.97;3.35;;;;;;;;;;5041791;28;20083;-65
2022/06/08 08:51:32;;;;;;;;;;;;;;;;;;5027348;28;20049;-64
2022/06/08 08:54:13;;;;;;;4.97;2.53;;;;;;;;;;5027351;28;19932;-63
2022/06/08 08:56:43;;;;;;;5.25;2.38;;;;;;;;;;5045630;28;20051;-64
2022/06/08 08:59:13;;;;;;;7.90;2.95;;;;;;;;;;5046834;28;20073;-64
2022/06/08 09:01:41;;;;;;;6.72;2.95;;;;;;;;;;5040884;28;20076;-64
2022/06/08 09:04:13;;;;;;;9.70;2.72;;;;;;;;;;5047359;28;20160;-63
2022/06/08 09:06:40;;;;;;;9.00;2.97;;;;;;;;;;5041507;28;20053;-67
2022/06/08 09:09:11;;;;;;;15.68;3.33;;;;;;;;;;5047118;28;20061;-66
2022/06/08 09:11:39;;;;;;;5.68;2.97;;;;;;;;;;5040920;28;20136;-65
2022/06/08 09:14:15;;;;;;;12.00;3.10;;;;;;;;;;5045528;28;20116;-63
2022/06/08 09:16:43;;;;;;;7.07;2.80;;;;;;;;;;5041187;28;20041;-63
2022/06/08 09:19:30;;;;;;;7.18;2.97;;;;;;;;;;5046725;28;20064;-67
2022/06/08 09:21:59;;;;;;;9.25;3.75;;;;;;;;;;5035326;28;20061;-64
2022/06/08 09:24:29;;;;;;;5.72;3.08;;;;;;;;;;5026232;28;20049;-63
2022/06/08 09:26:58;;;;;;;8.77;2.58;;;;;;;;;;5020763;28;20061;-66
2022/06/08 09:29:29;;;;;;;6.28;2.78;;;;;;;;;;5034100;28;20064;-64
2022/06/08 09:31:56;;;;;;;13.25;3.38;;;;;;;;;;5041390;28;20056;-65
2022/06/08 09:34:24;;;;;;;6.88;2.58;;;;;;;;;;5046777;28;20055;-66
2022/06/08 09:37:12;;;;;;;5.30;2.30;;;;;;;;;;5057540;28;20059;-63
2022/06/08 09:39:39;;;;;;;4.57;2.00;;;;;;;;;;5046622;28;20049;-66
2022/06/08 09:42:14;;;;;;;8.32;3.08;;;;;;;;;;5040814;28;20056;-67
2022/06/08 09:44:48;;;;;;;6.03;2.80;;;;;;;;;;5032988;28;20049;-63
2022/06/08 09:53:02;;;;;;;10.57;2.50;;;;;;;;;;5028413;28;20135;-64
2022/06/08 09:55:39;;;;;;;7.68;1.90;;;;;;;;;;5043731;28;20061;-64
2022/06/08 09:58:15;;;;;;;4.85;2.22;;;;;;;;;;5036792;28;20065;-66
2022/06/08 10:00:47;;;;;;;8.05;2.70;;;;;;;;;;5041973;28;20111;-66
2022/06/08 10:03:31;;;;;;;5.22;1.90;;;;;;;;;;5020716;28;20063;-63
2022/06/08 10:06:03;;;;;;;6.90;2.10;;;;;;;;;;5027882;28;20053;-64
2022/06/08 10:08:38;;;;;;;6.20;2.10;;;;;;;;;;5023772;28;20046;-64
2022/06/08 10:11:34;;;;;;;5.70;1.80;;;;;;;;;;5030056;28;20041;-67
2022/06/08 10:14:01;;;;;;;8.38;2.03;;;;;;;;;;5038132;28;20056;-64
2022/06/08 10:16:30;;;;;;;4.70;2.00;;;;;;;;;;5049667;28;20132;-64
2022/06/08 10:19:00;;;;;;;9.15;3.60;;;;;;;;;;5044119;28;20049;-63
2022/06/08 10:21:28;;;;;;;9.20;2.60;;;;;;;;;;5049645;28;20049;-63
2022/06/08 10:23:57;;;;;;;10.32;2.17;;;;;;;;;;5043892;28;20053;-63
2022/06/08 10:26:23;;;;;;;;;;;;;;;;;;5049541;28;20049;-65
2022/06/08 10:28:53;;;;;;;3.97;1.60;;;;;;;;;;5043991;28;19983;-64
2022/06/08 10:31:21;;;;;;;6.38;2.00;;;;;;;;;;5049142;28;20052;-63
2022/06/08 10:33:54;;;;;;;8.43;1.95;;;;;;;;;;5043939;28;20053;-64
2022/06/08 10:36:21;;;;;;;9.35;2.20;;;;;;;;;;5065192;28;20057;-63
2022/06/08 10:38:48;;;;;;;8.48;1.58;;;;;;;;;;5043134;28;20052;-63
2022/06/08 10:44:06;;;;;;;7.20;1.63;;;;;;;;;;5023437;28;20077;-65
2022/06/08 10:46:40;;;;;;;7.35;1.80;;;;;;;;;;5051344;28;20056;-63
2022/06/08 10:49:18;;;;;;;3.10;1.20;;;;;;;;;;5043676;28;20049;-66
2022/06/08 10:51:44;;;;;;;5.75;1.20;;;;;;;;;;5049437;28;20069;-67
2022/06/08 10:57:29;;;;;;;3.83;0.93;;;;;;;;;;5049263;28;20049;-63
2022/06/08 11:00:11;;;;;;;5.07;1.33;;;;;;;;;;5043809;28;20048;-67
2022/06/08 11:02:41;;;;;;;8.45;1.20;;;;;;;;;;5048145;28;20056;-65
2022/06/08 11:05:19;;;;;;;8.43;1.80;;;;;;;;;;5043804;28;20053;-65
2022/06/08 11:08:05;;;;;;;6.53;1.20;;;;;;;;;;5044111;28;20061;-64
2022/06/08 11:10:48;;;;;;;4.32;1.27;;;;;;;;;;5027285;28;20064;-64
2022/06/08 11:13:21;;;;;;;6.47;1.45;;;;;;;;;;5048828;28;20053;-68
2022/06/08 11:15:50;;;;;;;5.38;1.40;;;;;;;;;;5043073;28;20060;-64
2022/06/08 11:18:21;;;;;;;5.15;1.33;;;;;;;;;;5049320;28;20083;-65
2022/06/08 11:20:56;;;;;;;7.13;1.40;;;;;;;;;;5043418;28;20148;-67
2022/06/08 11:23:25;;;;;;;5.10;1.25;;;;;;;;;;5048616;28;20076;-63
2022/06/08 11:25:53;;;;;;;9.23;1.52;;;;;;;;;;5031776;28;20140;-65
2022/06/08 11:28:28;;;;;;;4.53;1.30;;;;;;;;;;5038002;28;20072;-65
2022/06/08 11:30:56;;;;;;;7.32;1.30;;;;;;;;;;5043081;28;20135;-66
2022/06/08 11:33:22;;;;;;;6.87;1.60;;;;;;;;;;5048270;28;20053;-65
2022/06/08 11:35:57;;;;;;;6.13;1.05;;;;;;;;;;5043074;28;20048;-65
2022/06/08 11:38:33;;;;;;;3.60;1.30;;;;;;;;;;5065014;28;20056;-64
2022/06/08 11:41:14;;;;;;;4.47;1.45;;;;;;;;;;5044229;28;20049;-67
2022/06/08 11:43:42;;;;;;;3.92;1.27;;;;;;;;;;5048164;28;20036;-64
2022/06/08 11:46:20;;;;;;;10.70;1.53;;;;;;;;;;5043519;28;20059;-64
2022/06/08 11:48:49;;;;;;;2.03;1.05;;;;;;;;;;5047121;28;20056;-69
2022/06/08 11:51:31;;;;;;;10.95;1.55;;;;;;;;;;5042068;28;20045;-70
2022/06/08 11:53:58;;;;;;;6.53;1.58;;;;;;;;;;5044959;28;20072;-69
2022/06/08 11:56:29;;;;;;;6.05;1.63;;;;;;;;;;5022610;28;20064;-70
2022/06/08 11:58:56;;;;;;;6.78;1.65;;;;;;;;;;5044085;28;20053;-68
2022/06/08 12:01:25;;;;;;;6.57;1.77;;;;;;;;;;5027361;28;20080;-64
2022/06/08 12:03:57;;;;;;;7.20;1.65;;;;;;;;;;5020861;28;20060;-64
2022/06/08 12:06:26;;;;;;;3.13;1.08;;;;;;;;;;5025135;28;20049;-64
2022/06/08 12:08:52;;;;;;;;;;;;;;;;;;5021835;28;20099;-65
2022/06/08 12:11:22;;;;;;;3.70;1.30;;;;;;;;;;5033723;28;19924;-67
2022/06/08 12:13:55;;;;;;;3.00;1.20;;;;;;;;;;5035500;28;20065;-67
2022/06/08 12:16:23;;;;;;;3.67;1.08;;;;;;;;;;5027547;28;20072;-66
2022/06/08 12:18:54;;;;;;;4.25;1.30;;;;;;;;;;5022481;28;20049;-65
2022/06/08 12:21:28;;;;;;;6.22;1.40;;;;;;;;;;5043990;28;20058;-67
2022/06/08 12:24:03;;;;;;;3.35;1.20;;;;;;;;;;5022118;28;20061;-68
2022/06/08 12:26:41;;;;;;;6.60;1.30;;;;;;;;;;5044062;28;20057;-65
2022/06/08 12:29:18;;;;;;;6.13;1.13;;;;;;;;;;5022623;28;20168;-71
2022/06/08 12:31:45;;;;;;;7.85;1.70;;;;;;;;;;5027037;28;20045;-66
2022/06/08 12:34:25;;;;;;;8.20;1.17;;;;;;;;;;5022434;28;20076;-66
2022/06/08 12:36:52;;;;;;;6.20;1.60;;;;;;;;;;5044236;28;20053;-66
2022/06/08 12:39:18;;;;;;;4.30;1.23;;;;;;;;;;5038715;28;20049;-69
2022/06/08 12:41:47;;;;;;;4.63;1.13;;;;;;;;;;5027327;28;20054;-68
2022/06/08 12:44:18;;;;;;;2.97;1.42;;;;;;;;;;5038022;28;20053;-66
2022/06/08 12:46:49;;;;;;;5.93;1.35;;;;;;;;;;5025466;28;20140;-69
2022/06/08 12:49:18;;;;;;;4.10;1.08;;;;;;;;;;5034583;28;20148;-66
2022/06/08 12:51:47;;;;;;;3.92;1.10;;;;;;;;;;5045720;28;20041;-66
2022/06/08 12:54:16;;;;;;;1.98;1.10;;;;;;;;;;5022231;28;20045;-65
2022/06/08 12:56:44;;;;;;;5.15;1.17;;;;;;;;;;5027370;28;20045;-69
2022/06/08 12:59:12;;;;;;;2.50;1.00;;;;;;;;;;5021290;28;20059;-68
2022/06/08 13:01:40;;;;;;;4.03;1.02;;;;;;;;;;5029721;28;20061;-68
2022/06/08 13:04:07;;;;;;;6.13;1.48;;;;;;;;;;5041268;28;20090;-70
2022/06/08 13:06:34;;;;;;;3.25;1.25;;;;;;;;;;5046791;28;20060;-66
2022/06/08 13:09:00;;;;;;;4.65;1.50;;;;;;;;;;5047190;28;20052;-66
2022/06/08 13:11:27;;;;;;;2.38;1.00;;;;;;;;;;5036876;28;20057;-65
2022/06/08 13:13:55;;;;;;;4.15;1.40;;;;;;;;;;5027352;28;20081;-66
2022/06/08 13:16:24;;;;;;;3.53;1.05;;;;;;;;;;5026350;28;20061;-68
2022/06/08 13:18:51;;;;;;;5.40;1.25;;;;;;;;;;5046981;28;20057;-66
2022/06/08 13:21:19;;;;;;;7.57;1.50;;;;;;;;;;5057754;28;20057;-67
2022/06/08 13:23:46;;;;;;;2.60;1.10;;;;;;;;;;5057254;28;20057;-65
2022/06/08 13:26:15;;;;;;;3.50;1.10;;;;;;;;;;5038553;28;20068;-68
2022/06/08 13:28:42;;;;;;;6.28;1.48;;;;;;;;;;5050431;28;20057;-63
2022/06/08 13:31:11;;;;;;;3.55;1.00;;;;;;;;;;5040947;28;20045;-64
2022/06/08 13:33:59;;;;;;;2.97;1.23;;;;;;;;;;5063426;28;20374;-66
2022/06/08 13:36:28;;;;;;;2.70;0.80;;;;;;;;;;5039005;28;20106;-67
2022/06/08 13:38:54;;;;;;;;;;;;;;;;;;5063293;28;20049;-64
2022/06/08 13:41:21;;;;;;;2.65;1.13;;;;;;;;;;5034958;28;19920;-64
2022/06/08 13:43:47;;;;;;;3.08;1.35;;;;;;;;;;5036429;28;20049;-66
2022/06/08 13:46:18;;;;;;;2.15;1.00;;;;;;;;;;5024960;28;20130;-64
2022/06/08 13:48:47;;;;;;;4.88;1.10;;;;;;;;;;5047387;28;20049;-66
2022/06/08 13:51:14;;;;;;;2.67;1.40;;;;;;;;;;5040834;28;20041;-65
2022/06/08 13:53:42;;;;;;;6.88;1.50;;;;;;;;;;5044158;28;20057;-66
2022/06/08 13:56:11;;;;;;;2.23;1.00;;;;;;;;;;5044293;28;20053;-64
2022/06/08 13:58:38;;;;;;;3.10;1.02;;;;;;;;;;5050565;28;20138;-65
2022/06/08 14:01:13;;;;;;;2.63;1.40;;;;;;;;;;5049931;28;20068;-64
2022/06/08 14:03:40;;;;;;;2.90;1.50;;;;;;;;;;5050153;28;20076;-65
2022/06/08 14:14:24;;;;;;;3.22;1.20;;;;;;;;;;5049575;28;20045;-65
2022/06/08 14:16:53;;;;;;;2.95;1.13;;;;;;;;;;5044378;28;20064;-65
2022/06/08 14:19:21;;;;;;;4.85;1.52;;;;;;;;;;5045176;28;20050;-65
2022/06/08 14:21:50;;;;;;;3.22;1.25;;;;;;;;;;5036172;28;20067;-64
2022/06/08 14:24:16;;;;;;;;;;;;;;;;;;5044395;28;20118;-65
2022/06/08 14:26:43;;;;;;;4.75;1.45;;;;;;;;;;5065977;28;19957;-65
2022/06/08 14:29:09;;;;;;;6.18;1.85;;;;;;;;;;5044299;28;20064;-64
2022/06/08 14:31:38;;;;;;;3.20;1.30;;;;;;;;;;5049593;28;20135;-64
2022/06/08 14:34:12;;;;;;;2.17;1.20;;;;;;;;;;5044041;28;20059;-65
2022/06/08 14:36:38;;;;;;;2.75;1.27;;;;;;;;;;5065187;28;20056;-64
2022/06/08 14:39:07;;;;;;;2.42;1.00;;;;;;;;;;5060517;28;20117;-64
2022/06/08 14:41:38;;;;;;;4.80;1.55;;;;;;;;;;5065337;28;20057;-65
2022/06/08 14:44:05;;;;;;;4.22;1.20;;;;;;;;;;5060566;28;20065;-64
2022/06/08 14:46:32;;;;;;;2.65;1.00;;;;;;;;;;5048896;28;20056;-66
2022/06/08 14:48:59;;;;;;;2.63;0.90;;;;;;;;;;5060734;28;20081;-64
2022/06/08 14:51:25;;;;;;;2.20;0.95;;;;;;;;;;5065571;28;20144;-65
2022/06/08 14:53:52;;;;;;;1.10;0.80;;;;;;;;;;5042865;28;20045;-64
2022/06/08 14:56:28;;;;;;;2.92;1.20;;;;;;;;;;5049610;28;20065;-63
2022/06/08 14:59:12;;;;;;;1.33;0.77;;;;;;;;;;5043670;28;20083;-66
2022/06/08 15:01:39;;;;;;;4.05;1.42;;;;;;;;;;5031968;28;20053;-65
2022/06/08 15:04:10;;;;;;;4.75;1.55;;;;;;;;;;5023942;28;20060;-66
2022/06/08 15:06:37;;;;;;;3.45;1.48;;;;;;;;;;5029228;28;20061;-63
2022/06/08 15:09:03;;;;;;;3.05;1.30;;;;;;;;;;5023837;28;20061;-68
2022/06/08 15:14:20;;;;;;;3.70;1.20;;;;;;;;;;5017138;28;20052;-64
2022/06/08 15:16:47;;;;;;;2.45;1.08;;;;;;;;;;5029255;28;20045;-66
2022/06/08 15:19:17;;;;;;;5.03;1.58;;;;;;;;;;5024470;28;20056;-66